Terminal Aerodrome Forecast
Issued by NWS Cleveland, OH

Home | Current Version | Previous Version | Text Only | Print | Product List | Glossary Off
Versions: 1 2 3 4 5 6 7 8 9 10 11 12 13 14 15 16 17

000
FTUS41 KCLE 271900 AAA
TAFERI
TAF AMD
KERI 271915Z 2719/2818 29010KT P6SM VCSH OVC015
      TEMPO 2719/2722 2SM -SN
     FM272200 32012KT P6SM VCSH BKN020
      TEMPO 2722/2802 BKN015 OVC020
     FM281500 36010KT P6SM BKN035=

USA.gov is the U.S. government's official web portal to all federal, state and local government web resources and services.